Time;durP1;ratioP1;P1;durP2;ratioP2;P2;SDS_P1;SDS_P2;PMS_P1;PMS_P2;Temp;Humidity;BMP_temperature;BMP_pressure;BME280_temperature;BME280_humidity;BME280_pressure;Samples;Min_cycle;Max_cycle;Signal;HPM_P1;HPM_P2
2022/08/27 00:05:02;;;;;;;7.45;1.00;;;;;;;-147.53;100.00;57128.34;10306331;28;20052;-76
2022/08/27 00:10:06;;;;;;;3.40;1.00;;;;;;;-147.53;100.00;57128.34;10303347;28;20039;-76
2022/08/27 00:15:09;;;;;;;6.90;1.60;;;;;;;-147.53;100.00;57128.34;10300571;28;20368;-76
2022/08/27 00:20:15;;;;;;;4.32;1.00;;;;;;;-147.53;100.00;57128.34;10310402;28;20039;-76
2022/08/27 00:25:18;;;;;;;5.72;1.55;;;;;;;-147.53;100.00;57128.34;10295960;28;20049;-75
2022/08/27 00:30:22;;;;;;;10.77;1.33;;;;;;;-147.53;100.00;57128.34;10310811;28;20074;-76
2022/08/27 00:35:25;;;;;;;8.15;0.98;;;;;;;-147.53;100.00;57128.34;10296290;28;20126;-76
2022/08/27 00:40:27;;;;;;;5.20;1.10;;;;;;;-147.53;100.00;57128.34;10305994;28;20065;-76
2022/08/27 00:45:35;;;;;;;9.07;2.22;;;;;;;-147.53;100.00;57128.34;10332557;28;20074;-75
2022/08/27 00:50:42;;;;;;;3.92;0.98;;;;;;;-147.53;100.00;57128.34;10305823;28;20081;-77
2022/08/27 00:55:52;;;;;;;8.23;1.20;;;;;;;-147.53;100.00;57128.34;10301832;28;20060;-76
2022/08/27 01:00:55;;;;;;;6.57;1.02;;;;;;;-147.53;100.00;57128.34;10318857;28;20129;-76
2022/08/27 01:06:00;;;;;;;7.45;1.15;;;;;;;-147.53;100.00;57128.34;10319147;28;20077;-75
2022/08/27 01:11:01;;;;;;;12.05;1.10;;;;;;;-147.53;100.00;57128.34;10309478;28;20132;-76
2022/08/27 01:16:07;;;;;;;9.15;1.55;;;;;;;-147.53;100.00;57128.34;10319699;28;20053;-75
2022/08/27 01:21:46;;;;;;;11.48;1.40;;;;;;;-147.53;100.00;57128.34;10317904;28;20418;-75
2022/08/27 01:26:48;;;;;;;5.82;1.17;;;;;;;-147.53;100.00;57128.34;10313820;28;20070;-76
2022/08/27 01:31:50;;;;;;;8.50;1.50;;;;;;;-147.53;100.00;57128.34;10314450;28;20525;-76
2022/08/27 01:36:51;;;;;;;7.80;1.30;;;;;;;-147.53;100.00;57128.34;10319543;28;20725;-76
2022/08/27 01:42:04;;;;;;;6.28;1.10;;;;;;;-147.53;100.00;57128.34;10318309;28;20399;-75
2022/08/27 01:47:06;;;;;;;5.88;1.00;;;;;;;-147.53;100.00;57128.34;10317436;28;20042;-75
2022/08/27 01:52:07;;;;;;;8.73;1.13;;;;;;;-147.53;100.00;57128.34;10312210;28;20415;-74
2022/08/27 01:57:09;;;;;;;7.38;1.65;;;;;;;-147.53;100.00;57128.34;10315752;28;20050;-74
2022/08/27 02:02:14;;;;;;;11.43;1.88;;;;;;;-147.53;100.00;57128.34;10311076;28;20054;-74
2022/08/27 02:07:15;;;;;;;2.63;0.88;;;;;;;-147.53;100.00;57128.34;10311709;28;20050;-77
2022/08/27 02:12:17;;;;;;;9.48;1.27;;;;;;;-147.53;100.00;57128.34;10314914;28;20129;-77
2022/08/27 02:17:18;;;;;;;7.03;1.23;;;;;;;-147.53;100.00;57128.34;10319734;28;20141;-77
2022/08/27 02:22:20;;;;;;;7.53;1.20;;;;;;;-147.53;100.00;57128.34;10319470;28;20050;-75
2022/08/27 02:27:22;;;;;;;3.92;1.00;;;;;;;-147.53;100.00;57128.34;10302782;28;20054;-76
2022/08/27 02:32:24;;;;;;;6.60;1.30;;;;;;;-147.53;100.00;57128.34;10317952;28;20054;-75
2022/08/27 02:37:33;;;;;;;4.65;0.95;;;;;;;-147.53;100.00;57128.34;10312833;28;20418;-76
2022/08/27 02:42:34;;;;;;;8.43;1.15;;;;;;;-147.53;100.00;57128.34;10308237;28;20088;-76
2022/08/27 02:47:36;;;;;;;3.67;0.90;;;;;;;-147.53;100.00;57128.34;10298917;28;20056;-75
2022/08/27 02:52:38;;;;;;;2.67;1.00;;;;;;;-147.53;100.00;57128.34;10308368;28;20046;-75
2022/08/27 02:57:39;;;;;;;3.47;0.98;;;;;;;-147.53;100.00;57128.34;10308196;28;20048;-75
2022/08/27 03:02:41;;;;;;;7.13;1.33;;;;;;;-147.53;100.00;57128.34;10310780;28;20552;-76
2022/08/27 03:07:43;;;;;;;8.52;1.10;;;;;;;-147.53;100.00;57128.34;10314973;28;20550;-76
2022/08/27 03:12:45;;;;;;;5.32;1.20;;;;;;;-147.53;100.00;57128.34;10301224;28;20502;-76
2022/08/27 03:23:07;;;;;;;8.10;1.40;;;;;;;-147.53;100.00;57128.34;10318992;28;20137;-76
2022/08/27 03:28:09;;;;;;;5.82;1.10;;;;;;;-147.53;100.00;57128.34;10317320;28;20126;-76
2022/08/27 03:33:25;;;;;;;9.85;1.52;;;;;;;-147.53;100.00;57128.34;10308358;28;20132;-77
2022/08/27 03:38:27;;;;;;;4.20;1.05;;;;;;;-147.53;100.00;57128.34;10292965;28;20049;-77
2022/08/27 03:43:28;;;;;;;3.53;0.95;;;;;;;-147.53;100.00;57128.34;10305731;28;20060;-76
2022/08/27 03:48:30;;;;;;;5.53;1.30;;;;;;;-147.53;100.00;57128.34;10302226;28;20047;-76
2022/08/27 03:53:33;;;;;;;8.27;1.30;;;;;;;-147.53;100.00;57128.34;10296803;28;20051;-75
2022/08/27 03:58:36;;;;;;;2.97;0.88;;;;;;;-147.53;100.00;57128.34;10323296;28;20090;-76
2022/08/27 04:03:39;;;;;;;8.85;1.58;;;;;;;-147.53;100.00;57128.34;10315986;28;20121;-76
2022/08/27 04:08:41;;;;;;;7.18;1.20;;;;;;;-147.53;100.00;57128.34;10300021;28;20054;-76
2022/08/27 04:13:43;;;;;;;7.97;1.08;;;;;;;-147.53;100.00;57128.34;10298044;28;20049;-75
2022/08/27 04:18:44;;;;;;;5.45;1.27;;;;;;;-147.53;100.00;57128.34;10297651;28;20051;-76
2022/08/27 04:23:46;;;;;;;6.57;1.23;;;;;;;-147.53;100.00;57128.34;10291443;28;20053;-76
2022/08/27 04:28:48;;;;;;;5.28;1.15;;;;;;;-147.53;100.00;57128.34;10303462;28;20035;-76
2022/08/27 04:33:49;;;;;;;8.07;1.20;;;;;;;-147.53;100.00;57128.34;10304680;28;20057;-76
2022/08/27 04:38:51;;;;;;;8.18;1.98;;;;;;;-147.53;100.00;57128.34;10312817;28;20588;-76
2022/08/27 04:43:58;;;;;;;7.95;1.00;;;;;;;-147.53;100.00;57128.34;10308518;28;20043;-76
2022/08/27 04:49:02;;;;;;;7.25;1.20;;;;;;;-147.53;100.00;57128.34;10316226;28;20053;-75
2022/08/27 04:54:10;;;;;;;5.72;1.75;;;;;;;-147.53;100.00;57128.34;10314600;28;20043;-76
2022/08/27 04:59:12;;;;;;;5.70;1.25;;;;;;;-147.53;100.00;57128.34;10315148;28;20425;-75
2022/08/27 05:04:17;;;;;;;8.90;1.67;;;;;;;-147.53;100.00;57128.34;10317487;28;20821;-76
2022/08/27 05:09:19;;;;;;;8.30;1.35;;;;;;;-147.53;100.00;57128.34;10314685;28;20094;-76
2022/08/27 05:14:28;;;;;;;7.38;1.17;;;;;;;-147.53;100.00;57128.34;10290564;28;20043;-76
2022/08/27 05:19:30;;;;;;;12.02;1.55;;;;;;;-147.53;100.00;57128.34;10300568;28;20054;-76
2022/08/27 05:24:32;;;;;;;5.47;1.20;;;;;;;-147.53;100.00;57128.34;10309667;28;20046;-76
2022/08/27 05:29:33;;;;;;;6.88;1.65;;;;;;;-147.53;100.00;57128.34;10306314;28;20049;-76
2022/08/27 05:34:35;;;;;;;8.75;2.17;;;;;;;-147.53;100.00;57128.34;10297963;28;20050;-76
2022/08/27 05:39:37;;;;;;;5.35;1.30;;;;;;;-147.53;100.00;57128.34;10295364;28;20057;-76
2022/08/27 05:44:39;;;;;;;7.80;2.10;;;;;;;-147.53;100.00;57128.34;10292028;28;20162;-76
2022/08/27 05:49:43;;;;;;;6.50;1.33;;;;;;;-147.53;100.00;57128.34;10306213;28;20122;-75
2022/08/27 05:54:44;;;;;;;5.53;1.40;;;;;;;-147.53;100.00;57128.34;10303680;28;20051;-75
2022/08/27 06:05:12;;;;;;;9.82;1.38;;;;;;;-147.53;100.00;57128.34;10284296;28;20142;-74
2022/08/27 06:10:14;;;;;;;4.85;1.15;;;;;;;-147.53;100.00;57128.34;10292749;28;20523;-74
2022/08/27 06:15:15;;;;;;;8.85;1.63;;;;;;;-147.53;100.00;57128.34;10295859;28;20056;-75
2022/08/27 06:20:19;;;;;;;10.18;1.30;;;;;;;-147.53;100.00;57128.34;10295181;28;20045;-75
2022/08/27 06:25:21;;;;;;;12.38;1.50;;;;;;;-147.53;100.00;57128.34;10312241;28;20065;-74
2022/08/27 06:30:22;;;;;;;12.10;1.33;;;;;;;-147.53;100.00;57128.34;10302691;28;20062;-75
2022/08/27 06:35:24;;;;;;;8.52;1.40;;;;;;;-147.53;100.00;57128.34;10305737;28;20053;-76
2022/08/27 06:40:25;;;;;;;6.70;1.30;;;;;;;-147.53;100.00;57128.34;10290043;28;20045;-75
2022/08/27 06:45:27;;;;;;;11.98;1.75;;;;;;;-147.53;100.00;57128.34;10298241;28;20478;-76
2022/08/27 06:50:28;;;;;;;7.75;1.25;;;;;;;-147.53;100.00;57128.34;10281467;28;20043;-76
2022/08/27 06:55:30;;;;;;;11.48;2.03;;;;;;;-147.53;100.00;57128.34;10288230;28;20502;-75
2022/08/27 07:00:38;;;;;;;13.57;1.60;;;;;;;-147.53;100.00;57128.34;10294765;28;20053;-74
2022/08/27 07:05:40;;;;;;;9.60;1.50;;;;;;;-147.53;100.00;57128.34;10293351;28;20051;-75
2022/08/27 07:10:42;;;;;;;9.02;1.45;;;;;;;-147.53;100.00;57128.34;10299268;28;20039;-75
2022/08/27 07:15:43;;;;;;;11.68;1.50;;;;;;;-147.53;100.00;57128.34;10295205;28;20043;-76
2022/08/27 07:20:45;;;;;;;11.88;1.80;;;;;;;-147.53;100.00;57128.34;10302953;28;20046;-75
2022/08/27 07:25:47;;;;;;;8.15;1.58;;;;;;;-147.53;100.00;57128.34;10296938;28;20054;-74
2022/08/27 07:30:49;;;;;;;9.40;1.63;;;;;;;-147.53;100.00;57128.34;10299630;28;20039;-75
2022/08/27 07:35:51;;;;;;;9.00;1.50;;;;;;;-147.53;100.00;57128.34;10275465;28;20070;-75
2022/08/27 07:40:53;;;;;;;11.77;2.88;;;;;;;-147.53;100.00;57128.34;10292109;28;20074;-75
2022/08/27 07:45:55;;;;;;;6.03;1.00;;;;;;;-147.53;100.00;57128.34;10295780;28;20088;-76
2022/08/27 07:50:57;;;;;;;7.30;1.30;;;;;;;-147.53;100.00;57128.34;10299790;28;20126;-73
2022/08/27 07:56:06;;;;;;;6.13;1.20;;;;;;;-147.53;100.00;57128.34;10288843;28;20063;-74
2022/08/27 08:01:09;;;;;;;;;;;;;;;-147.53;100.00;57128.34;10304312;28;20549;-74
2022/08/27 08:06:13;;;;;;;8.98;1.75;;;;;;;-147.53;100.00;57128.34;10297916;28;19933;-74
2022/08/27 08:11:16;;;;;;;9.63;1.63;;;;;;;-147.53;100.00;57128.34;10303299;28;20053;-73
2022/08/27 08:16:17;;;;;;;11.80;1.90;;;;;;;-147.53;100.00;57128.34;10316741;28;20054;-74
2022/08/27 08:21:19;;;;;;;9.98;1.90;;;;;;;-147.53;100.00;57128.34;10311177;28;20046;-73
2022/08/27 08:26:22;;;;;;;8.65;1.58;;;;;;;-147.53;100.00;57128.34;10315149;28;20077;-76
2022/08/27 08:31:23;;;;;;;7.43;1.65;;;;;;;-147.53;100.00;57128.34;10297758;28;20532;-74
2022/08/27 08:36:25;;;;;;;7.38;1.45;;;;;;;-147.53;100.00;57128.34;10301099;28;20062;-75
2022/08/27 08:41:26;;;;;;;9.43;1.80;;;;;;;-147.53;100.00;57128.34;10309922;28;20043;-74
2022/08/27 08:47:24;;;;;;;9.57;1.50;;;;;;;-147.53;100.00;57128.34;10294810;28;20051;-73
2022/08/27 08:52:44;;;;;;;10.45;1.55;;;;;;;-147.53;100.00;57128.34;10207819;28;20453;-73
2022/08/27 08:57:53;;;;;;;8.63;1.48;;;;;;;-147.53;100.00;57128.34;10283053;28;20078;-75
2022/08/27 09:02:56;;;;;;;5.50;1.57;;;;;;;-147.53;100.00;57128.34;10292992;28;20053;-76
2022/08/27 09:08:06;;;;;;;11.73;1.83;;;;;;;-147.53;100.00;57128.34;10305168;28;20565;-77
2022/08/27 09:13:42;;;;;;;8.25;1.63;;;;;;;-147.53;100.00;57128.34;10312661;28;20042;-76
2022/08/27 09:18:44;;;;;;;8.45;1.67;;;;;;;-147.53;100.00;57128.34;10299690;28;20042;-76
2022/08/27 09:24:17;;;;;;;8.48;1.48;;;;;;;-147.53;100.00;57128.34;10300423;28;20392;-77
2022/08/27 09:29:19;;;;;;;12.23;1.48;;;;;;;-147.53;100.00;57128.34;10300520;28;20480;-76
2022/08/27 09:34:22;;;;;;;15.85;2.20;;;;;;;-147.53;100.00;57128.34;10295085;28;20038;-77
2022/08/27 09:39:32;;;;;;;9.48;2.15;;;;;;;-147.53;100.00;57128.34;10299575;28;20516;-76
2022/08/27 09:44:45;;;;;;;9.93;1.60;;;;;;;-147.53;100.00;57128.34;10303476;28;20149;-77
2022/08/27 09:50:06;;;;;;;10.88;1.90;;;;;;;-147.53;100.00;57128.34;10303755;28;20042;-77
2022/08/27 09:55:07;;;;;;;14.88;1.73;;;;;;;-147.53;100.00;57128.34;10327609;28;20050;-78
2022/08/27 10:00:16;;;;;;;8.63;1.33;;;;;;;-147.53;100.00;57128.34;10303914;28;20137;-78
2022/08/27 10:05:31;;;;;;;17.50;2.00;;;;;;;-147.53;100.00;57128.34;10301592;28;20046;-78
2022/08/27 10:10:42;;;;;;;9.88;1.65;;;;;;;-147.53;100.00;57128.34;10305173;28;20038;-77
2022/08/27 10:16:23;;;;;;;9.63;1.48;;;;;;;-147.53;100.00;57128.34;10275646;28;20576;-76
2022/08/27 10:21:30;;;;;;;;;;;;;;;-147.53;100.00;57128.34;10299992;28;20068;-77
2022/08/27 10:26:46;;;;;;;8.07;1.60;;;;;;;-147.53;100.00;57128.34;10305535;28;19922;-79
2022/08/27 10:31:53;;;;;;;10.35;1.52;;;;;;;-147.53;100.00;57128.34;10312445;28;20038;-76
2022/08/27 10:37:24;;;;;;;17.35;2.40;;;;;;;-147.53;100.00;57128.34;10296961;28;20356;-76
2022/08/27 10:43:04;;;;;;;11.35;1.30;;;;;;;-147.53;100.00;57128.34;10326984;28;20046;-76
2022/08/27 10:48:23;;;;;;;11.20;2.05;;;;;;;-147.53;100.00;57128.34;10305014;28;20449;-80
2022/08/27 10:53:36;;;;;;;7.05;1.15;;;;;;;-147.53;100.00;57128.34;10308054;28;20044;-76
2022/08/27 10:58:59;;;;;;;8.50;1.15;;;;;;;-147.53;100.00;57128.34;10312438;28;20043;-79
2022/08/27 11:04:06;;;;;;;11.77;1.40;;;;;;;-147.53;100.00;57128.34;10312754;28;20129;-81
2022/08/27 11:09:33;;;;;;;4.70;1.30;;;;;;;-147.53;100.00;57128.34;10332842;28;20038;-81
2022/08/27 11:14:59;;;;;;;8.48;1.63;;;;;;;-147.53;100.00;57128.34;10349981;28;20490;-82
2022/08/27 11:20:06;;;;;;;11.88;1.35;;;;;;;-147.53;100.00;57128.34;10323700;28;20050;-78
2022/08/27 11:25:49;;;;;;;12.77;1.45;;;;;;;-147.53;100.00;57128.34;10307866;28;20077;-79
2022/08/27 11:31:10;;;;;;;11.15;1.40;;;;;;;-147.53;100.00;57128.34;10312552;28;20043;-78
2022/08/27 11:36:17;;;;;;;8.00;1.23;;;;;;;-147.53;100.00;57128.34;10325040;28;20065;-78
2022/08/27 11:41:40;;;;;;;5.93;1.42;;;;;;;-147.53;100.00;57128.34;10310053;28;20046;-77
2022/08/27 11:47:07;;;;;;;10.00;1.67;;;;;;;-147.53;100.00;57128.34;10313826;28;20039;-77
2022/08/27 11:52:10;;;;;;;8.35;1.40;;;;;;;-147.53;100.00;57128.34;10313905;28;20097;-77
2022/08/27 11:57:25;;;;;;;8.25;1.70;;;;;;;-147.53;100.00;57128.34;10293201;28;20074;-77
2022/08/27 12:02:28;;;;;;;6.13;1.92;;;;;;;-147.53;100.00;57128.34;10304924;28;20042;-77
2022/08/27 12:07:35;;;;;;;6.72;1.27;;;;;;;-147.53;100.00;57128.34;10310915;28;20053;-77
2022/08/27 12:12:55;;;;;;;6.72;1.23;;;;;;;-147.53;100.00;57128.34;10311159;28;20038;-76
2022/08/27 12:18:27;;;;;;;8.52;1.33;;;;;;;-147.53;100.00;57128.34;10303590;28;20057;-77
2022/08/27 12:23:52;;;;;;;8.10;1.30;;;;;;;-147.53;100.00;57128.34;10305999;28;20049;-76
2022/08/27 12:29:32;;;;;;;9.15;1.30;;;;;;;-147.53;100.00;57128.34;10283243;28;20545;-76
2022/08/27 12:34:46;;;;;;;7.28;1.60;;;;;;;-147.53;100.00;57128.34;10301111;28;20524;-74
2022/08/27 12:39:51;;;;;;;6.57;1.60;;;;;;;-147.53;100.00;57128.34;10283724;28;20042;-74
2022/08/27 12:44:54;;;;;;;11.88;1.48;;;;;;;-147.53;100.00;57128.34;10299450;28;20043;-75
2022/08/27 12:50:00;;;;;;;6.18;1.20;;;;;;;-147.53;100.00;57128.34;10310087;28;20137;-75
2022/08/27 12:55:23;;;;;;;6.88;1.33;;;;;;;-147.53;100.00;57128.34;10320551;28;20219;-75
2022/08/27 13:00:34;;;;;;;7.60;1.60;;;;;;;-147.53;100.00;57128.34;10318933;28;20049;-75
2022/08/27 13:05:40;;;;;;;5.68;1.20;;;;;;;-147.53;100.00;57128.34;10333825;28;20407;-74
2022/08/27 13:10:41;;;;;;;6.80;1.65;;;;;;;-147.53;100.00;57128.34;10315302;28;20524;-75
2022/08/27 13:15:49;;;;;;;7.05;1.52;;;;;;;-147.53;100.00;57128.34;10320137;28;20042;-75
2022/08/27 13:21:17;;;;;;;8.10;1.73;;;;;;;-147.53;100.00;57128.34;10311356;28;20044;-74
2022/08/27 13:26:28;;;;;;;7.18;1.65;;;;;;;-147.53;100.00;57128.34;10316109;28;20109;-75
2022/08/27 13:31:31;;;;;;;6.65;1.27;;;;;;;-147.53;100.00;57128.34;10312266;28;20125;-75
2022/08/27 13:36:36;;;;;;;9.77;1.55;;;;;;;-147.53;100.00;57128.34;10314215;28;20042;-75
2022/08/27 13:41:39;;;;;;;7.63;1.50;;;;;;;-147.53;100.00;57128.34;10308111;28;20079;-75
2022/08/27 13:47:02;;;;;;;9.80;1.50;;;;;;;-147.53;100.00;57128.34;10318420;28;20036;-75
2022/08/27 13:52:04;;;;;;;10.20;1.52;;;;;;;-147.53;100.00;57128.34;10318115;28;20049;-75
2022/08/27 13:57:09;;;;;;;8.63;1.52;;;;;;;-147.53;100.00;57128.34;10332189;28;20395;-74
2022/08/27 14:02:11;;;;;;;6.70;1.75;;;;;;;-147.53;100.00;57128.34;10315204;28;20038;-75
2022/08/27 14:07:19;;;;;;;6.50;1.70;;;;;;;-147.53;100.00;57128.34;10319210;28;20052;-75
2022/08/27 14:12:36;;;;;;;8.70;2.07;;;;;;;-147.53;100.00;57128.34;10310044;28;20065;-75
2022/08/27 14:17:38;;;;;;;13.90;1.42;;;;;;;-147.53;100.00;57128.34;10316177;28;20097;-75
2022/08/27 14:22:41;;;;;;;5.80;1.38;;;;;;;-147.53;100.00;57128.34;10328474;28;20202;-75
2022/08/27 14:27:44;;;;;;;10.13;1.15;;;;;;;-147.53;100.00;57128.34;10318213;28;20034;-75
2022/08/27 14:32:57;;;;;;;7.30;1.00;;;;;;;-147.53;100.00;57128.34;10312900;28;20618;-74
2022/08/27 14:38:07;;;;;;;8.55;1.65;;;;;;;-147.53;100.00;57128.34;10329672;28;20042;-75
2022/08/27 14:43:08;;;;;;;7.10;1.40;;;;;;;-147.53;100.00;57128.34;10308026;28;20125;-76
2022/08/27 14:48:21;;;;;;;6.47;1.20;;;;;;;-147.53;100.00;57128.34;10306160;28;20047;-78
2022/08/27 14:53:41;;;;;;;13.88;1.17;;;;;;;-147.53;100.00;57128.34;10308064;28;21005;-77
2022/08/27 14:58:43;;;;;;;9.32;1.30;;;;;;;-147.53;100.00;57128.34;10308656;28;20038;-76
2022/08/27 15:10:59;;;;;;;6.03;1.20;;;;;;;-147.53;100.00;57128.34;10318419;28;20054;-77
2022/08/27 15:16:01;;;;;;;8.30;1.38;;;;;;;-147.53;100.00;57128.34;10318165;28;20513;-77
2022/08/27 15:21:18;;;;;;;9.05;1.33;;;;;;;-147.53;100.00;57128.34;10308671;28;20050;-76
2022/08/27 15:26:21;;;;;;;8.10;1.45;;;;;;;-147.53;100.00;57128.34;10313419;28;20579;-73
2022/08/27 15:31:23;;;;;;;10.70;1.55;;;;;;;-147.53;100.00;57128.34;10310062;28;20038;-76
2022/08/27 15:36:25;;;;;;;5.68;1.17;;;;;;;-147.53;100.00;57128.34;10291273;28;20167;-74
2022/08/27 15:41:27;;;;;;;5.93;1.08;;;;;;;-147.53;100.00;57128.34;10319250;28;20039;-76
2022/08/27 15:46:29;;;;;;;6.65;1.65;;;;;;;-147.53;100.00;57128.34;10309741;28;20050;-75
2022/08/27 15:51:32;;;;;;;6.10;1.30;;;;;;;-147.53;100.00;57128.34;10315557;28;20187;-75
2022/08/27 15:56:34;;;;;;;9.80;1.20;;;;;;;-147.53;100.00;57128.34;10316389;28;20368;-74
2022/08/27 16:01:37;;;;;;;6.40;1.02;;;;;;;-147.53;100.00;57128.34;10317453;28;20495;-75
2022/08/27 16:06:38;;;;;;;8.15;1.52;;;;;;;-147.53;100.00;57128.34;10318205;28;20477;-75
2022/08/27 16:11:40;;;;;;;4.82;1.10;;;;;;;-147.53;100.00;57128.34;10327550;28;20136;-74
2022/08/27 16:16:46;;;;;;;8.73;1.45;;;;;;;-147.53;100.00;57128.34;10321360;28;20042;-75
2022/08/27 16:21:48;;;;;;;7.80;1.55;;;;;;;-147.53;100.00;57128.34;10318044;28;20038;-76
2022/08/27 16:26:51;;;;;;;7.75;1.80;;;;;;;-147.53;100.00;57128.34;10316119;28;20053;-74
2022/08/27 16:31:54;;;;;;;10.65;1.60;;;;;;;-147.53;100.00;57128.34;10316191;28;20494;-76
2022/08/27 16:37:01;;;;;;;7.68;1.85;;;;;;;-147.53;100.00;57128.34;10316466;28;20105;-76
2022/08/27 16:42:03;;;;;;;11.85;2.40;;;;;;;-147.53;100.00;57128.34;10317265;28;20034;-74
2022/08/27 16:47:05;;;;;;;8.98;2.40;;;;;;;-147.53;100.00;57128.34;10319834;28;20076;-74
2022/08/27 16:52:07;;;;;;;9.65;2.70;;;;;;;-147.53;100.00;57128.34;10309115;28;20080;-74
2022/08/27 16:57:09;;;;;;;12.32;3.13;;;;;;;-147.53;100.00;57128.34;10316485;28;20074;-74
2022/08/27 17:02:40;;;;;;;7.43;2.15;;;;;;;-147.53;100.00;57128.34;10315732;28;20117;-74
2022/08/27 17:07:42;;;;;;;15.38;2.55;;;;;;;-147.53;100.00;57128.34;10307599;28;20514;-74
2022/08/27 17:12:47;;;;;;;9.07;1.92;;;;;;;-147.53;100.00;57128.34;10307448;28;20046;-73
2022/08/27 17:17:48;;;;;;;14.02;3.20;;;;;;;-147.53;100.00;57128.34;10286638;28;20058;-75
2022/08/27 17:22:50;;;;;;;10.25;3.35;;;;;;;-147.53;100.00;57128.34;10297416;28;20524;-74
2022/08/27 17:27:51;;;;;;;17.95;3.47;;;;;;;-147.53;100.00;57128.34;10304628;28;20034;-75
2022/08/27 17:32:59;;;;;;;12.52;2.85;;;;;;;-147.53;100.00;57128.34;10320509;28;20581;-74
2022/08/27 17:38:02;;;;;;;11.98;2.80;;;;;;;-147.53;100.00;57128.34;10302232;28;20564;-74
2022/08/27 17:43:05;;;;;;;13.02;3.10;;;;;;;-147.53;100.00;57128.34;10306968;28;20772;-75
2022/08/27 17:48:09;;;;;;;10.00;3.15;;;;;;;-147.53;100.00;57128.34;10313228;28;20138;-75
2022/08/27 17:53:19;;;;;;;15.63;3.13;;;;;;;-147.53;100.00;57128.34;10296270;28;20042;-75
2022/08/27 17:58:21;;;;;;;15.02;3.05;;;;;;;-147.53;100.00;57128.34;10311573;28;20125;-75
2022/08/27 18:03:23;;;;;;;15.00;5.70;;;;;;;-147.53;100.00;57128.34;10312589;28;20154;-76
2022/08/27 18:08:25;;;;;;;13.00;3.10;;;;;;;-147.53;100.00;57128.34;10317755;28;20599;-75
2022/08/27 18:13:27;;;;;;;14.02;5.00;;;;;;;-147.53;100.00;57128.34;10308430;28;20126;-76
2022/08/27 18:18:29;;;;;;;16.67;4.15;;;;;;;-147.53;100.00;57128.34;10314483;28;20038;-75
2022/08/27 18:23:30;;;;;;;15.38;2.97;;;;;;;-147.53;100.00;57128.34;10317451;28;20093;-75
2022/08/27 18:28:33;;;;;;;15.23;3.58;;;;;;;-147.53;100.00;57128.34;10317611;28;20058;-76
2022/08/27 18:33:35;;;;;;;12.82;3.22;;;;;;;-147.53;100.00;57128.34;10299655;28;20564;-75
2022/08/27 18:38:37;;;;;;;12.32;3.33;;;;;;;-147.53;100.00;57128.34;10301892;28;20129;-75
2022/08/27 18:43:41;;;;;;;16.00;3.60;;;;;;;-147.53;100.00;57128.34;10302821;28;20041;-75
2022/08/27 18:48:43;;;;;;;16.00;3.88;;;;;;;-147.53;100.00;57128.34;10300909;28;20387;-76
2022/08/27 18:53:46;;;;;;;14.18;3.83;;;;;;;-147.53;100.00;57128.34;10304883;28;20053;-75
2022/08/27 18:58:48;;;;;;;13.98;6.40;;;;;;;-147.53;100.00;57128.34;10305168;28;20047;-76
2022/08/27 19:03:51;;;;;;;30.05;7.10;;;;;;;-147.53;100.00;57128.34;10307662;28;20512;-76
2022/08/27 19:08:53;;;;;;;13.60;4.00;;;;;;;-147.53;100.00;57128.34;10303228;28;20047;-74
2022/08/27 19:13:55;;;;;;;14.05;3.60;;;;;;;-147.53;100.00;57128.34;10309518;28;20057;-75
2022/08/27 19:18:56;;;;;;;12.02;4.05;;;;;;;-147.53;100.00;57128.34;10305713;28;20054;-76
2022/08/27 19:23:58;;;;;;;15.52;3.75;;;;;;;-147.53;100.00;57128.34;10305424;28;20064;-76
2022/08/27 19:28:59;;;;;;;16.60;4.05;;;;;;;-147.53;100.00;57128.34;10305338;28;20536;-76
2022/08/27 19:34:06;;;;;;;16.00;3.55;;;;;;;-147.53;100.00;57128.34;10302811;28;20058;-76
2022/08/27 19:39:10;;;;;;;13.40;4.10;;;;;;;-147.53;100.00;57128.34;10312552;28;20046;-75
2022/08/27 19:44:12;;;;;;;13.95;3.45;;;;;;;-147.53;100.00;57128.34;10310681;28;20053;-74
2022/08/27 19:49:13;;;;;;;20.25;4.18;;;;;;;-147.53;100.00;57128.34;10310127;28;20093;-76
2022/08/27 19:54:15;;;;;;;16.42;4.13;;;;;;;-147.53;100.00;57128.34;10313184;28;20057;-77
2022/08/27 19:59:16;;;;;;;18.67;4.10;;;;;;;-147.53;100.00;57128.34;10315282;28;20087;-75
2022/08/27 20:04:22;;;;;;;17.42;3.72;;;;;;;-147.53;100.00;57128.34;10309852;28;20811;-74
2022/08/27 20:09:24;;;;;;;13.90;3.80;;;;;;;-147.53;100.00;57128.34;10332349;28;20050;-75
2022/08/27 20:14:26;;;;;;;17.58;3.55;;;;;;;-147.53;100.00;57128.34;10321373;28;20592;-75
2022/08/27 20:19:28;;;;;;;13.52;3.78;;;;;;;-147.53;100.00;57128.34;10324295;28;20042;-74
2022/08/27 20:24:30;;;;;;;21.02;3.67;;;;;;;-147.53;100.00;57128.34;10311610;28;20042;-75
2022/08/27 20:29:32;;;;;;;16.33;3.53;;;;;;;-147.53;100.00;57128.34;10311737;28;20057;-75
2022/08/27 20:34:33;;;;;;;16.40;4.18;;;;;;;-147.53;100.00;57128.34;10317857;28;20105;-74
2022/08/27 20:39:36;;;;;;;13.55;3.70;;;;;;;-147.53;100.00;57128.34;10337779;28;20117;-75
2022/08/27 20:44:37;;;;;;;17.05;4.20;;;;;;;-147.53;100.00;57128.34;10318093;28;20046;-73
2022/08/27 20:49:40;;;;;;;17.50;4.32;;;;;;;-147.53;100.00;57128.34;10320575;28;20034;-75
2022/08/27 20:54:41;;;;;;;15.27;3.63;;;;;;;-147.53;100.00;57128.34;10316679;28;20046;-75
2022/08/27 21:05:09;;;;;;;12.85;3.35;;;;;;;-147.53;100.00;57128.34;10310889;28;20046;-75
2022/08/27 21:10:11;;;;;;;13.80;3.55;;;;;;;-147.53;100.00;57128.34;10309727;28;20118;-76
2022/08/27 21:15:13;;;;;;;12.55;3.60;;;;;;;-147.53;100.00;57128.34;10313831;28;20042;-75
2022/08/27 21:20:14;;;;;;;20.48;3.88;;;;;;;-147.53;100.00;57128.34;10320953;28;20495;-76
2022/08/27 21:25:16;;;;;;;15.30;3.72;;;;;;;-147.53;100.00;57128.34;10318815;28;20134;-76
2022/08/27 21:30:18;;;;;;;11.52;3.60;;;;;;;-147.53;100.00;57128.34;10315587;28;20081;-75
2022/08/27 21:35:19;;;;;;;14.85;3.72;;;;;;;-147.53;100.00;57128.34;10320813;28;20129;-73
2022/08/27 21:40:23;;;;;;;14.57;3.80;;;;;;;-147.53;100.00;57128.34;10312478;28;20042;-73
2022/08/27 21:45:25;;;;;;;20.40;3.67;;;;;;;-147.53;100.00;57128.34;10320880;28;20057;-73
2022/08/27 21:50:26;;;;;;;11.02;3.30;;;;;;;-147.53;100.00;57128.34;10307608;28;20045;-73
2022/08/27 21:55:28;;;;;;;14.55;3.88;;;;;;;-147.53;100.00;57128.34;10308485;28;20030;-73
2022/08/27 22:00:37;;;;;;;12.90;3.60;;;;;;;-147.53;100.00;57128.34;10314909;28;20048;-73
2022/08/27 22:05:40;;;;;;;;;;;;;;;-147.53;100.00;57128.34;10312112;28;20093;-73
2022/08/27 22:10:43;;;;;;;13.95;3.53;;;;;;;-147.53;100.00;57128.34;10316760;28;19926;-73
2022/08/27 22:15:45;;;;;;;10.55;3.10;;;;;;;-147.53;100.00;57128.34;10313046;28;20425;-73
2022/08/27 22:20:47;;;;;;;17.35;3.58;;;;;;;-147.53;100.00;57128.34;10299301;28;20042;-73
2022/08/27 22:25:48;;;;;;;15.00;4.22;;;;;;;-147.53;100.00;57128.34;10308702;28;20047;-73
2022/08/27 22:30:50;;;;;;;11.25;4.05;;;;;;;-147.53;100.00;57128.34;10310785;28;20509;-74
2022/08/27 22:35:51;;;;;;;15.95;3.28;;;;;;;-147.53;100.00;57128.34;10310788;28;20046;-73
2022/08/27 22:40:53;;;;;;;14.30;3.15;;;;;;;-147.53;100.00;57128.34;10308566;28;20045;-72
2022/08/27 22:45:54;;;;;;;11.88;3.28;;;;;;;-147.53;100.00;57128.34;10315315;28;20054;-73
2022/08/27 22:50:56;;;;;;;13.45;3.40;;;;;;;-147.53;100.00;57128.34;10293647;28;20038;-73
2022/08/27 22:55:58;;;;;;;13.20;3.45;;;;;;;-147.53;100.00;57128.34;10311829;28;20053;-73
2022/08/27 23:01:00;;;;;;;12.73;3.17;;;;;;;-147.53;100.00;57128.34;10316233;28;20117;-73
2022/08/27 23:06:02;;;;;;;10.82;3.20;;;;;;;-147.53;100.00;57128.34;10309860;28;20042;-73
2022/08/27 23:11:03;;;;;;;13.48;3.58;;;;;;;-147.53;100.00;57128.34;10317682;28;20488;-74
2022/08/27 23:16:07;;;;;;;11.57;3.53;;;;;;;-147.53;100.00;57128.34;10321357;28;20046;-74